sensor_id;sensor_type;location;lat;lon;timestamp;pressure;altitude;pressure_sealevel;temperature;humidity
51781;BME280;37844;57.126;24.288;2023-02-04T00:00:57;101721.56;;;-1.07;100.00
51781;BME280;37844;57.126;24.288;2023-02-04T00:03:24;101710.13;;;-1.23;100.00
51781;BME280;37844;57.126;24.288;2023-02-04T00:05:49;101729.72;;;-0.99;100.00
51781;BME280;37844;57.126;24.288;2023-02-04T00:08:14;101725.34;;;-0.90;100.00
51781;BME280;37844;57.126;24.288;2023-02-04T00:10:40;101736.53;;;-0.98;100.00
51781;BME280;37844;57.126;24.288;2023-02-04T00:13:05;101738.66;;;-0.92;100.00
51781;BME280;37844;57.126;24.288;2023-02-04T00:15:32;101743.41;;;-0.85;100.00
51781;BME280;37844;57.126;24.288;2023-02-04T00:17:58;101752.94;;;-0.93;100.00
51781;BME280;37844;57.126;24.288;2023-02-04T00:20:23;101748.88;;;-0.91;100.00
51781;BME280;37844;57.126;24.288;2023-02-04T00:22:49;101756.47;;;-0.91;100.00
51781;BME280;37844;57.126;24.288;2023-02-04T00:25:15;101749.75;;;-1.02;100.00
51781;BME280;37844;57.126;24.288;2023-02-04T00:27:41;101756.03;;;-0.97;100.00
51781;BME280;37844;57.126;24.288;2023-02-04T00:30:07;101766.09;;;-1.09;100.00
51781;BME280;37844;57.126;24.288;2023-02-04T00:32:32;101766.09;;;-1.09;100.00
51781;BME280;37844;57.126;24.288;2023-02-04T00:34:58;101768.72;;;-1.07;100.00
51781;BME280;37844;57.126;24.288;2023-02-04T00:37:23;101774.56;;;-1.08;100.00
51781;BME280;37844;57.126;24.288;2023-02-04T00:39:49;101774.63;;;-0.96;100.00
51781;BME280;37844;57.126;24.288;2023-02-04T00:42:15;101778.00;;;-0.96;100.00
51781;BME280;37844;57.126;24.288;2023-02-04T00:44:41;101783.66;;;-0.88;100.00
51781;BME280;37844;57.126;24.288;2023-02-04T00:47:06;101779.25;;;-0.91;100.00
51781;BME280;37844;57.126;24.288;2023-02-04T00:49:32;101766.00;;;-0.98;100.00
51781;BME280;37844;57.126;24.288;2023-02-04T00:51:58;101787.44;;;-0.83;100.00
51781;BME280;37844;57.126;24.288;2023-02-04T00:54:23;101780.16;;;-0.90;100.00
51781;BME280;37844;57.126;24.288;2023-02-04T00:56:49;101791.44;;;-0.97;100.00
51781;BME280;37844;57.126;24.288;2023-02-04T00:59:14;101786.91;;;-1.01;100.00
51781;BME280;37844;57.126;24.288;2023-02-04T01:01:40;101789.56;;;-0.99;100.00
51781;BME280;37844;57.126;24.288;2023-02-04T01:04:05;101789.31;;;-1.02;100.00
51781;BME280;37844;57.126;24.288;2023-02-04T01:06:31;101792.41;;;-1.07;100.00
51781;BME280;37844;57.126;24.288;2023-02-04T01:08:57;101792.97;;;-0.99;100.00
51781;BME280;37844;57.126;24.288;2023-02-04T01:11:22;101801.75;;;-1.05;100.00
51781;BME280;37844;57.126;24.288;2023-02-04T01:13:48;101810.56;;;-1.00;100.00
51781;BME280;37844;57.126;24.288;2023-02-04T01:16:13;101817.84;;;-0.93;100.00
51781;BME280;37844;57.126;24.288;2023-02-04T01:18:39;101817.69;;;-0.84;100.00
51781;BME280;37844;57.126;24.288;2023-02-04T01:21:04;101817.06;;;-1.04;100.00
51781;BME280;37844;57.126;24.288;2023-02-04T01:23:30;101817.78;;;-1.05;100.00
51781;BME280;37844;57.126;24.288;2023-02-04T01:25:56;101814.53;;;-1.04;100.00
51781;BME280;37844;57.126;24.288;2023-02-04T01:28:21;101825.03;;;-1.10;100.00
51781;BME280;37844;57.126;24.288;2023-02-04T01:30:47;101826.63;;;-1.00;100.00
51781;BME280;37844;57.126;24.288;2023-02-04T01:33:12;101826.91;;;-1.07;100.00
51781;BME280;37844;57.126;24.288;2023-02-04T01:35:37;101834.63;;;-1.05;100.00
51781;BME280;37844;57.126;24.288;2023-02-04T01:38:03;101839.19;;;-1.01;100.00
51781;BME280;37844;57.126;24.288;2023-02-04T01:40:28;101845.94;;;-0.90;100.00
51781;BME280;37844;57.126;24.288;2023-02-04T01:42:54;101841.69;;;-0.79;100.00
51781;BME280;37844;57.126;24.288;2023-02-04T01:45:19;101846.22;;;-0.75;100.00
51781;BME280;37844;57.126;24.288;2023-02-04T01:47:45;101849.09;;;-0.93;100.00
51781;BME280;37844;57.126;24.288;2023-02-04T01:50:12;101854.09;;;-1.04;100.00
51781;BME280;37844;57.126;24.288;2023-02-04T01:52:39;101855.22;;;-1.01;100.00
51781;BME280;37844;57.126;24.288;2023-02-04T01:55:17;101868.91;;;-0.99;100.00
51781;BME280;37844;57.126;24.288;2023-02-04T01:57:43;101874.81;;;-0.98;100.00
51781;BME280;37844;57.126;24.288;2023-02-04T02:00:16;101878.06;;;-1.11;100.00
51781;BME280;37844;57.126;24.288;2023-02-04T02:02:48;101875.03;;;-1.17;100.00
51781;BME280;37844;57.126;24.288;2023-02-04T02:05:20;101887.34;;;-1.00;100.00
51781;BME280;37844;57.126;24.288;2023-02-04T02:07:50;101879.13;;;-0.97;100.00
51781;BME280;37844;57.126;24.288;2023-02-04T02:10:17;101895.28;;;-0.85;100.00
51781;BME280;37844;57.126;24.288;2023-02-04T02:12:44;101893.50;;;-0.86;100.00
51781;BME280;37844;57.126;24.288;2023-02-04T02:15:11;101904.16;;;-0.90;100.00
51781;BME280;37844;57.126;24.288;2023-02-04T02:17:37;101903.53;;;-0.98;100.00
51781;BME280;37844;57.126;24.288;2023-02-04T02:20:06;101908.81;;;-1.17;100.00
51781;BME280;37844;57.126;24.288;2023-02-04T02:22:39;101910.69;;;-1.04;100.00
51781;BME280;37844;57.126;24.288;2023-02-04T02:25:15;101914.22;;;-1.12;100.00
51781;BME280;37844;57.126;24.288;2023-02-04T02:27:40;101917.03;;;-1.09;100.00
51781;BME280;37844;57.126;24.288;2023-02-04T02:30:08;101918.91;;;-1.07;100.00
51781;BME280;37844;57.126;24.288;2023-02-04T02:32:35;101923.06;;;-1.07;100.00
51781;BME280;37844;57.126;24.288;2023-02-04T02:35:01;101914.69;;;-1.28;100.00
51781;BME280;37844;57.126;24.288;2023-02-04T02:37:27;101925.78;;;-1.16;100.00
51781;BME280;37844;57.126;24.288;2023-02-04T02:39:54;101927.06;;;-1.31;100.00
51781;BME280;37844;57.126;24.288;2023-02-04T02:42:19;101930.56;;;-1.19;100.00
51781;BME280;37844;57.126;24.288;2023-02-04T02:44:45;101931.75;;;-1.25;100.00
51781;BME280;37844;57.126;24.288;2023-02-04T02:47:16;101931.78;;;-1.03;100.00
51781;BME280;37844;57.126;24.288;2023-02-04T02:49:49;101941.69;;;-1.07;100.00
51781;BME280;37844;57.126;24.288;2023-02-04T02:52:16;101939.63;;;-1.00;100.00
51781;BME280;37844;57.126;24.288;2023-02-04T02:54:41;101920.22;;;-1.22;100.00
51781;BME280;37844;57.126;24.288;2023-02-04T02:57:16;101947.94;;;-1.34;100.00
51781;BME280;37844;57.126;24.288;2023-02-04T02:59:42;101953.13;;;-1.32;100.00
51781;BME280;37844;57.126;24.288;2023-02-04T03:02:10;101951.22;;;-1.24;100.00
51781;BME280;37844;57.126;24.288;2023-02-04T03:04:40;101943.38;;;-1.27;100.00
51781;BME280;37844;57.126;24.288;2023-02-04T03:07:07;101945.66;;;-1.20;100.00
51781;BME280;37844;57.126;24.288;2023-02-04T03:09:33;101962.19;;;-1.14;100.00
51781;BME280;37844;57.126;24.288;2023-02-04T03:12:00;101971.69;;;-1.21;100.00
51781;BME280;37844;57.126;24.288;2023-02-04T03:14:26;101969.16;;;-1.21;100.00
51781;BME280;37844;57.126;24.288;2023-02-04T03:16:53;101970.06;;;-1.31;100.00
51781;BME280;37844;57.126;24.288;2023-02-04T03:19:21;101980.66;;;-1.15;100.00
51781;BME280;37844;57.126;24.288;2023-02-04T03:21:47;101977.56;;;-1.00;100.00
51781;BME280;37844;57.126;24.288;2023-02-04T03:24:13;101974.81;;;-1.03;100.00
51781;BME280;37844;57.126;24.288;2023-02-04T03:26:38;101969.69;;;-0.93;100.00
51781;BME280;37844;57.126;24.288;2023-02-04T03:29:08;101985.44;;;-1.08;100.00
51781;BME280;37844;57.126;24.288;2023-02-04T03:31:34;101986.03;;;-1.00;100.00
51781;BME280;37844;57.126;24.288;2023-02-04T03:34:00;101983.81;;;-1.17;100.00
51781;BME280;37844;57.126;24.288;2023-02-04T03:36:25;101993.06;;;-1.18;100.00
51781;BME280;37844;57.126;24.288;2023-02-04T03:38:51;101983.22;;;-1.25;100.00
51781;BME280;37844;57.126;24.288;2023-02-04T03:41:18;102002.22;;;-0.98;100.00
51781;BME280;37844;57.126;24.288;2023-02-04T03:43:43;101992.13;;;-0.98;100.00
51781;BME280;37844;57.126;24.288;2023-02-04T03:46:09;101988.00;;;-0.86;100.00
51781;BME280;37844;57.126;24.288;2023-02-04T03:48:34;101988.38;;;-0.81;100.00
51781;BME280;37844;57.126;24.288;2023-02-04T03:51:00;101968.97;;;-1.02;100.00
51781;BME280;37844;57.126;24.288;2023-02-04T03:53:25;101979.81;;;-0.93;100.00
51781;BME280;37844;57.126;24.288;2023-02-04T03:55:51;101993.66;;;-1.10;100.00
51781;BME280;37844;57.126;24.288;2023-02-04T03:58:16;102001.13;;;-1.01;100.00
51781;BME280;37844;57.126;24.288;2023-02-04T04:00:42;101997.06;;;-0.99;100.00
51781;BME280;37844;57.126;24.288;2023-02-04T04:03:07;102009.34;;;-1.04;100.00
51781;BME280;37844;57.126;24.288;2023-02-04T04:05:33;101983.97;;;-1.26;100.00
51781;BME280;37844;57.126;24.288;2023-02-04T04:07:58;101996.84;;;-1.13;100.00
51781;BME280;37844;57.126;24.288;2023-02-04T04:10:24;101999.66;;;-1.20;100.00
51781;BME280;37844;57.126;24.288;2023-02-04T04:12:50;102008.75;;;-1.22;100.00
51781;BME280;37844;57.126;24.288;2023-02-04T04:15:16;102009.63;;;-1.21;100.00
51781;BME280;37844;57.126;24.288;2023-02-04T04:17:42;102023.69;;;-1.25;100.00
51781;BME280;37844;57.126;24.288;2023-02-04T04:20:08;102039.88;;;-1.23;100.00
51781;BME280;37844;57.126;24.288;2023-02-04T04:22:33;102038.47;;;-1.19;100.00
51781;BME280;37844;57.126;24.288;2023-02-04T04:24:59;102050.88;;;-1.22;100.00
51781;BME280;37844;57.126;24.288;2023-02-04T04:27:24;102054.06;;;-1.35;100.00
51781;BME280;37844;57.126;24.288;2023-02-04T04:29:50;102053.94;;;-1.47;100.00
51781;BME280;37844;57.126;24.288;2023-02-04T04:32:16;102061.63;;;-1.56;100.00
51781;BME280;37844;57.126;24.288;2023-02-04T04:34:41;102067.09;;;-1.51;100.00
51781;BME280;37844;57.126;24.288;2023-02-04T04:37:07;102065.94;;;-1.44;100.00
51781;BME280;37844;57.126;24.288;2023-02-04T04:39:32;102077.09;;;-1.42;100.00
51781;BME280;37844;57.126;24.288;2023-02-04T04:41:58;102077.94;;;-1.52;100.00
51781;BME280;37844;57.126;24.288;2023-02-04T04:44:23;102093.63;;;-1.56;100.00
51781;BME280;37844;57.126;24.288;2023-02-04T04:46:48;102086.91;;;-1.45;100.00
51781;BME280;37844;57.126;24.288;2023-02-04T04:49:14;102088.19;;;-1.51;100.00
51781;BME280;37844;57.126;24.288;2023-02-04T04:51:40;102094.78;;;-1.42;100.00
51781;BME280;37844;57.126;24.288;2023-02-04T04:54:06;102090.84;;;-1.49;100.00
51781;BME280;37844;57.126;24.288;2023-02-04T04:56:32;102091.22;;;-1.55;100.00
51781;BME280;37844;57.126;24.288;2023-02-04T04:58:57;102102.47;;;-1.51;100.00
51781;BME280;37844;57.126;24.288;2023-02-04T05:01:30;102102.72;;;-1.48;100.00
51781;BME280;37844;57.126;24.288;2023-02-04T05:03:55;102101.97;;;-1.47;100.00
51781;BME280;37844;57.126;24.288;2023-02-04T05:06:21;102102.47;;;-1.41;100.00
51781;BME280;37844;57.126;24.288;2023-02-04T05:08:52;102108.53;;;-1.29;100.00
51781;BME280;37844;57.126;24.288;2023-02-04T05:11:17;102117.41;;;-1.34;100.00
51781;BME280;37844;57.126;24.288;2023-02-04T05:13:50;102108.56;;;-1.39;100.00
51781;BME280;37844;57.126;24.288;2023-02-04T05:16:15;102115.00;;;-1.42;100.00
51781;BME280;37844;57.126;24.288;2023-02-04T05:18:42;102122.84;;;-1.39;100.00
51781;BME280;37844;57.126;24.288;2023-02-04T05:21:08;102128.66;;;-1.40;100.00
51781;BME280;37844;57.126;24.288;2023-02-04T05:23:33;102130.16;;;-1.53;100.00
51781;BME280;37844;57.126;24.288;2023-02-04T05:25:59;102140.78;;;-1.46;100.00
51781;BME280;37844;57.126;24.288;2023-02-04T05:28:25;102129.28;;;-1.43;100.00
51781;BME280;37844;57.126;24.288;2023-02-04T05:30:50;102144.94;;;-1.57;100.00
51781;BME280;37844;57.126;24.288;2023-02-04T05:33:16;102148.00;;;-1.41;100.00
51781;BME280;37844;57.126;24.288;2023-02-04T05:35:41;102147.38;;;-1.38;100.00
51781;BME280;37844;57.126;24.288;2023-02-04T05:38:07;102150.78;;;-1.38;100.00
51781;BME280;37844;57.126;24.288;2023-02-04T05:40:32;102158.59;;;-1.45;100.00
51781;BME280;37844;57.126;24.288;2023-02-04T05:42:58;102147.75;;;-1.54;100.00
51781;BME280;37844;57.126;24.288;2023-02-04T05:45:23;102162.25;;;-1.62;100.00
51781;BME280;37844;57.126;24.288;2023-02-04T05:47:49;102160.00;;;-1.59;100.00
51781;BME280;37844;57.126;24.288;2023-02-04T05:50:14;102168.47;;;-1.48;100.00
51781;BME280;37844;57.126;24.288;2023-02-04T05:52:40;102164.16;;;-1.59;100.00
51781;BME280;37844;57.126;24.288;2023-02-04T05:55:06;102166.41;;;-1.73;100.00
51781;BME280;37844;57.126;24.288;2023-02-04T05:57:32;102175.25;;;-1.67;100.00
51781;BME280;37844;57.126;24.288;2023-02-04T05:59:57;102176.69;;;-1.61;100.00
51781;BME280;37844;57.126;24.288;2023-02-04T06:02:23;102195.75;;;-1.64;100.00
51781;BME280;37844;57.126;24.288;2023-02-04T06:04:49;102194.00;;;-1.55;100.00
51781;BME280;37844;57.126;24.288;2023-02-04T06:07:14;102200.44;;;-1.59;100.00
51781;BME280;37844;57.126;24.288;2023-02-04T06:09:39;102195.75;;;-1.64;100.00
51781;BME280;37844;57.126;24.288;2023-02-04T06:12:12;102189.19;;;-1.62;100.00
51781;BME280;37844;57.126;24.288;2023-02-04T06:14:37;102194.00;;;-1.55;100.00
51781;BME280;37844;57.126;24.288;2023-02-04T06:17:03;102195.75;;;-1.64;100.00
51781;BME280;37844;57.126;24.288;2023-02-04T06:19:28;102205.50;;;-1.59;100.00
51781;BME280;37844;57.126;24.288;2023-02-04T06:21:54;102201.44;;;-1.57;100.00
51781;BME280;37844;57.126;24.288;2023-02-04T06:24:19;102210.72;;;-1.47;100.00
51781;BME280;37844;57.126;24.288;2023-02-04T06:26:44;102230.31;;;-1.44;100.00
51781;BME280;37844;57.126;24.288;2023-02-04T06:29:10;102236.41;;;-1.42;100.00
51781;BME280;37844;57.126;24.288;2023-02-04T06:31:35;102231.34;;;-1.32;100.00
51781;BME280;37844;57.126;24.288;2023-02-04T06:34:04;102236.91;;;-1.36;100.00
51781;BME280;37844;57.126;24.288;2023-02-04T06:36:30;102242.03;;;-1.55;100.00
51781;BME280;37844;57.126;24.288;2023-02-04T06:38:55;102239.75;;;-1.52;100.00
51781;BME280;37844;57.126;24.288;2023-02-04T06:41:22;102243.69;;;-1.56;100.00
51781;BME280;37844;57.126;24.288;2023-02-04T06:43:47;102252.53;;;-1.51;100.00
51781;BME280;37844;57.126;24.288;2023-02-04T06:46:13;102250.94;;;-1.40;100.00
51781;BME280;37844;57.126;24.288;2023-02-04T06:48:38;102252.84;;;-1.37;100.00
51781;BME280;37844;57.126;24.288;2023-02-04T06:51:04;102257.13;;;-1.46;100.00
51781;BME280;37844;57.126;24.288;2023-02-04T06:53:29;102258.25;;;-1.43;100.00
51781;BME280;37844;57.126;24.288;2023-02-04T06:55:55;102261.41;;;-1.45;100.00
51781;BME280;37844;57.126;24.288;2023-02-04T06:58:20;102277.34;;;-1.46;100.00
51781;BME280;37844;57.126;24.288;2023-02-04T07:00:45;102280.16;;;-1.33;100.00
51781;BME280;37844;57.126;24.288;2023-02-04T07:03:11;102281.81;;;-1.34;100.00
51781;BME280;37844;57.126;24.288;2023-02-04T07:05:36;102283.88;;;-1.59;100.00
51781;BME280;37844;57.126;24.288;2023-02-04T07:08:02;102271.91;;;-1.51;100.00
51781;BME280;37844;57.126;24.288;2023-02-04T07:10:27;102297.50;;;-1.57;100.00
51781;BME280;37844;57.126;24.288;2023-02-04T07:12:53;102305.09;;;-1.57;100.00
51781;BME280;37844;57.126;24.288;2023-02-04T07:15:18;102306.84;;;-1.66;100.00
51781;BME280;37844;57.126;24.288;2023-02-04T07:17:44;102307.69;;;-1.46;100.00
51781;BME280;37844;57.126;24.288;2023-02-04T07:20:10;102310.56;;;-1.52;100.00
51781;BME280;37844;57.126;24.288;2023-02-04T07:22:36;102317.75;;;-1.27;100.00
51781;BME280;37844;57.126;24.288;2023-02-04T07:25:05;102322.22;;;-1.15;100.00
51781;BME280;37844;57.126;24.288;2023-02-04T07:27:30;102326.47;;;-1.24;100.00
51781;BME280;37844;57.126;24.288;2023-02-04T07:29:58;102338.47;;;-1.32;100.00
51781;BME280;37844;57.126;24.288;2023-02-04T07:32:24;102331.34;;;-1.46;100.00
51781;BME280;37844;57.126;24.288;2023-02-04T07:34:52;102339.19;;;-1.43;100.00
51781;BME280;37844;57.126;24.288;2023-02-04T07:37:17;102352.56;;;-1.54;100.00
51781;BME280;37844;57.126;24.288;2023-02-04T07:39:44;102352.78;;;-1.61;100.00
51781;BME280;37844;57.126;24.288;2023-02-04T07:42:10;102356.59;;;-1.56;100.00
51781;BME280;37844;57.126;24.288;2023-02-04T07:44:35;102356.28;;;-1.59;100.00
51781;BME280;37844;57.126;24.288;2023-02-04T07:47:02;102360.94;;;-1.64;100.00
51781;BME280;37844;57.126;24.288;2023-02-04T07:49:28;102365.00;;;-1.66;100.00
51781;BME280;37844;57.126;24.288;2023-02-04T07:51:57;102379.22;;;-1.77;100.00
51781;BME280;37844;57.126;24.288;2023-02-04T07:54:22;102382.97;;;-1.82;100.00
51781;BME280;37844;57.126;24.288;2023-02-04T07:56:49;102390.19;;;-1.76;100.00
51781;BME280;37844;57.126;24.288;2023-02-04T07:59:14;102399.28;;;-1.59;100.00
51781;BME280;37844;57.126;24.288;2023-02-04T08:01:42;102390.81;;;-1.60;100.00
51781;BME280;37844;57.126;24.288;2023-02-04T08:04:08;102411.09;;;-1.50;100.00
51781;BME280;37844;57.126;24.288;2023-02-04T08:06:34;102407.84;;;-1.67;100.00
51781;BME280;37844;57.126;24.288;2023-02-04T08:08:59;102385.97;;;-1.67;100.00
51781;BME280;37844;57.126;24.288;2023-02-04T08:11:25;102384.31;;;-1.66;100.00
51781;BME280;37844;57.126;24.288;2023-02-04T08:13:54;102410.19;;;-1.50;100.00
51781;BME280;37844;57.126;24.288;2023-02-04T08:16:20;102412.03;;;-1.39;100.00
51781;BME280;37844;57.126;24.288;2023-02-04T08:18:46;102419.44;;;-1.51;100.00
51781;BME280;37844;57.126;24.288;2023-02-04T08:21:11;102431.44;;;-1.29;100.00
51781;BME280;37844;57.126;24.288;2023-02-04T08:23:37;102432.50;;;-1.17;100.00
51781;BME280;37844;57.126;24.288;2023-02-04T08:26:10;102436.69;;;-1.17;100.00
51781;BME280;37844;57.126;24.288;2023-02-04T08:28:36;102436.06;;;-1.15;100.00
51781;BME280;37844;57.126;24.288;2023-02-04T08:31:04;102442.16;;;-1.13;100.00
51781;BME280;37844;57.126;24.288;2023-02-04T08:33:30;102444.13;;;-1.19;100.00
51781;BME280;37844;57.126;24.288;2023-02-04T08:35:55;102449.69;;;-1.23;100.00
51781;BME280;37844;57.126;24.288;2023-02-04T08:38:21;102445.66;;;-1.21;100.00
51781;BME280;37844;57.126;24.288;2023-02-04T08:40:46;102455.56;;;-1.14;100.00
51781;BME280;37844;57.126;24.288;2023-02-04T08:43:12;102450.50;;;-1.14;100.00
51781;BME280;37844;57.126;24.288;2023-02-04T08:45:38;102439.16;;;-1.09;100.00
51781;BME280;37844;57.126;24.288;2023-02-04T08:48:04;102464.13;;;-0.93;100.00
51781;BME280;37844;57.126;24.288;2023-02-04T08:50:29;102470.34;;;-0.89;100.00
51781;BME280;37844;57.126;24.288;2023-02-04T08:52:55;102470.69;;;-0.66;100.00
51781;BME280;37844;57.126;24.288;2023-02-04T08:55:21;102469.38;;;-0.81;100.00
51781;BME280;37844;57.126;24.288;2023-02-04T08:57:47;102475.75;;;-0.76;100.00
51781;BME280;37844;57.126;24.288;2023-02-04T09:00:13;102479.56;;;-0.60;100.00
51781;BME280;37844;57.126;24.288;2023-02-04T09:02:38;102483.50;;;-0.64;100.00
51781;BME280;37844;57.126;24.288;2023-02-04T09:05:04;102484.00;;;-0.68;100.00
51781;BME280;37844;57.126;24.288;2023-02-04T09:07:30;102483.63;;;-0.62;100.00
51781;BME280;37844;57.126;24.288;2023-02-04T09:10:02;102501.72;;;-0.68;100.00
51781;BME280;37844;57.126;24.288;2023-02-04T09:12:27;102500.75;;;-0.79;100.00
51781;BME280;37844;57.126;24.288;2023-02-04T09:15:00;102494.66;;;-0.91;100.00
51781;BME280;37844;57.126;24.288;2023-02-04T09:17:25;102520.63;;;-0.83;100.00
51781;BME280;37844;57.126;24.288;2023-02-04T09:19:50;102500.81;;;-0.98;100.00
51781;BME280;37844;57.126;24.288;2023-02-04T09:22:16;102519.88;;;-0.82;100.00
51781;BME280;37844;57.126;24.288;2023-02-04T09:24:41;102527.19;;;-0.86;100.00
51781;BME280;37844;57.126;24.288;2023-02-04T09:27:07;102522.06;;;-0.77;100.00
51781;BME280;37844;57.126;24.288;2023-02-04T09:29:32;102534.25;;;-0.92;100.00
51781;BME280;37844;57.126;24.288;2023-02-04T09:31:58;102470.69;;;-1.43;100.00
51781;BME280;37844;57.126;24.288;2023-02-04T09:34:23;102544.19;;;-1.03;100.00
51781;BME280;37844;57.126;24.288;2023-02-04T09:36:49;102550.19;;;-0.93;100.00
51781;BME280;37844;57.126;24.288;2023-02-04T09:39:14;102552.44;;;-0.96;100.00
51781;BME280;37844;57.126;24.288;2023-02-04T09:41:41;102548.56;;;-0.92;100.00
51781;BME280;37844;57.126;24.288;2023-02-04T09:44:11;102549.78;;;-0.97;100.00
51781;BME280;37844;57.126;24.288;2023-02-04T09:46:47;102546.16;;;-1.10;100.00
51781;BME280;37844;57.126;24.288;2023-02-04T09:49:13;102559.16;;;-0.96;100.00
51781;BME280;37844;57.126;24.288;2023-02-04T09:51:40;102559.56;;;-0.92;100.00
51781;BME280;37844;57.126;24.288;2023-02-04T09:54:11;102569.09;;;-0.89;100.00
51781;BME280;37844;57.126;24.288;2023-02-04T09:56:37;102573.34;;;-0.69;100.00
51781;BME280;37844;57.126;24.288;2023-02-04T09:59:05;102563.72;;;-0.73;100.00
51781;BME280;37844;57.126;24.288;2023-02-04T10:01:34;102575.41;;;-0.65;100.00
51781;BME280;37844;57.126;24.288;2023-02-04T10:04:00;102572.81;;;-0.56;100.00
51781;BME280;37844;57.126;24.288;2023-02-04T10:06:26;102584.13;;;-0.43;100.00
51781;BME280;37844;57.126;24.288;2023-02-04T10:08:51;102583.97;;;-0.54;100.00
51781;BME280;37844;57.126;24.288;2023-02-04T10:11:20;102582.66;;;-0.78;100.00
51781;BME280;37844;57.126;24.288;2023-02-04T10:13:48;102594.19;;;-0.82;100.00
51781;BME280;37844;57.126;24.288;2023-02-04T10:16:17;102596.97;;;-0.79;100.00
51781;BME280;37844;57.126;24.288;2023-02-04T10:18:44;102587.81;;;-0.87;100.00
51781;BME280;37844;57.126;24.288;2023-02-04T10:21:16;102587.66;;;-0.70;100.00
51781;BME280;37844;57.126;24.288;2023-02-04T10:23:45;102602.84;;;-0.70;100.00
51781;BME280;37844;57.126;24.288;2023-02-04T10:26:13;102603.84;;;-0.49;100.00
51781;BME280;37844;57.126;24.288;2023-02-04T10:28:39;102599.78;;;-0.57;100.00
51781;BME280;37844;57.126;24.288;2023-02-04T10:31:05;102600.09;;;-0.62;100.00
51781;BME280;37844;57.126;24.288;2023-02-04T10:33:39;102594.84;;;-0.74;100.00
51781;BME280;37844;57.126;24.288;2023-02-04T10:36:05;102607.31;;;-0.67;100.00
51781;BME280;37844;57.126;24.288;2023-02-04T10:38:31;102607.94;;;-0.89;100.00
51781;BME280;37844;57.126;24.288;2023-02-04T10:41:01;102617.84;;;-0.81;100.00
51781;BME280;37844;57.126;24.288;2023-02-04T10:43:26;102624.28;;;-0.66;100.00
51781;BME280;37844;57.126;24.288;2023-02-04T10:46:01;102625.03;;;-0.67;100.00
51781;BME280;37844;57.126;24.288;2023-02-04T10:48:27;102614.63;;;-0.70;100.00
51781;BME280;37844;57.126;24.288;2023-02-04T10:50:55;102630.44;;;-0.73;100.00
51781;BME280;37844;57.126;24.288;2023-02-04T10:53:23;102628.44;;;-0.86;100.00
51781;BME280;37844;57.126;24.288;2023-02-04T10:56:19;102637.22;;;-1.01;100.00
51781;BME280;37844;57.126;24.288;2023-02-04T10:58:45;102646.47;;;-1.01;100.00
51781;BME280;37844;57.126;24.288;2023-02-04T11:01:13;102652.25;;;-1.02;100.00
51781;BME280;37844;57.126;24.288;2023-02-04T11:03:40;102662.28;;;-0.85;100.00
51781;BME280;37844;57.126;24.288;2023-02-04T11:06:11;102656.06;;;-0.97;100.00
51781;BME280;37844;57.126;24.288;2023-02-04T11:08:38;102663.34;;;-0.92;100.00
51781;BME280;37844;57.126;24.288;2023-02-04T11:11:08;102664.84;;;-0.94;100.00
51781;BME280;37844;57.126;24.288;2023-02-04T11:18:57;102655.00;;;-0.72;100.00
51781;BME280;37844;57.126;24.288;2023-02-04T11:21:42;102664.81;;;-0.66;100.00
51781;BME280;37844;57.126;24.288;2023-02-04T11:26:51;102664.81;;;-0.66;100.00
51781;BME280;37844;57.126;24.288;2023-02-04T11:29:33;102678.16;;;-0.77;100.00
51781;BME280;37844;57.126;24.288;2023-02-04T11:32:34;102669.72;;;-0.87;100.00
51781;BME280;37844;57.126;24.288;2023-02-04T11:37:41;102675.03;;;-0.83;100.00
51781;BME280;37844;57.126;24.288;2023-02-04T11:40:31;102692.09;;;-0.91;100.00
51781;BME280;37844;57.126;24.288;2023-02-04T11:43:17;102692.78;;;-0.83;100.00
51781;BME280;37844;57.126;24.288;2023-02-04T11:45:43;102700.16;;;-0.76;100.00
51781;BME280;37844;57.126;24.288;2023-02-04T11:48:19;102706.41;;;-0.54;100.00
51781;BME280;37844;57.126;24.288;2023-02-04T11:51:01;102698.47;;;-0.67;100.00
51781;BME280;37844;57.126;24.288;2023-02-04T11:53:31;102714.03;;;-1.00;100.00
51781;BME280;37844;57.126;24.288;2023-02-04T11:55:57;102714.59;;;-0.94;100.00
51781;BME280;37844;57.126;24.288;2023-02-04T11:58:23;102717.88;;;-0.76;100.00
51781;BME280;37844;57.126;24.288;2023-02-04T12:00:53;102712.41;;;-0.81;100.00
51781;BME280;37844;57.126;24.288;2023-02-04T12:03:31;102720.81;;;-0.91;100.00
51781;BME280;37844;57.126;24.288;2023-02-04T12:06:00;102723.72;;;-1.05;100.00
51781;BME280;37844;57.126;24.288;2023-02-04T12:08:34;102718.47;;;-0.98;100.00
51781;BME280;37844;57.126;24.288;2023-02-04T12:11:10;102722.06;;;-0.77;100.00
51781;BME280;37844;57.126;24.288;2023-02-04T12:13:51;102730.03;;;-0.63;100.00
51781;BME280;37844;57.126;24.288;2023-02-04T12:16:18;102715.50;;;-0.75;100.00
51781;BME280;37844;57.126;24.288;2023-02-04T12:18:44;102732.69;;;-0.62;100.00
51781;BME280;37844;57.126;24.288;2023-02-04T12:21:09;102734.31;;;-0.81;100.00
51781;BME280;37844;57.126;24.288;2023-02-04T12:23:35;102744.25;;;-0.74;100.00
51781;BME280;37844;57.126;24.288;2023-02-04T12:26:00;102729.41;;;-0.80;100.00
51781;BME280;37844;57.126;24.288;2023-02-04T12:28:26;102755.97;;;-0.66;100.00
51781;BME280;37844;57.126;24.288;2023-02-04T12:30:57;102732.53;;;-0.82;100.00
51781;BME280;37844;57.126;24.288;2023-02-04T12:33:23;102762.72;;;-1.03;100.00
51781;BME280;37844;57.126;24.288;2023-02-04T12:35:49;102768.88;;;-0.82;100.00
51781;BME280;37844;57.126;24.288;2023-02-04T12:38:14;102762.66;;;-0.67;100.00
51781;BME280;37844;57.126;24.288;2023-02-04T12:40:40;102764.25;;;-0.58;100.00